Time;durP1;ratioP1;P1;durP2;ratioP2;P2;SDS_P1;SDS_P2;PMS_P1;PMS_P2;Temp;Humidity;BMP_temperature;BMP_pressure;BME280_temperature;BME280_humidity;BME280_pressure;Samples;Min_cycle;Max_cycle;Signal;HPM_P1;HPM_P2
2021/04/29 00:01:14;;;;;;;;;;;4.20;74.50;;;;;;5003616;28;19976;-70
2021/04/29 00:03:40;;;;;;;;;;;4.30;74.60;;;;;;4998484;28;19979;-70
2021/04/29 00:06:06;;;;;;;;;;;4.20;74.30;;;;;;4982094;28;20324;-71
2021/04/29 00:08:32;;;;;;;;;;;4.30;74.60;;;;;;5010894;28;20592;-71
2021/04/29 00:10:58;;;;;;;;;;;4.20;74.60;;;;;;5022329;28;19913;-71
2021/04/29 00:13:23;;;;;;;;;;;4.20;74.80;;;;;;5017342;28;20497;-71
2021/04/29 00:15:49;;;;;;;;;;;4.20;75.30;;;;;;5019203;28;19956;-71
2021/04/29 00:18:15;;;;;;;;;;;4.20;75.60;;;;;;5019801;28;19917;-71
2021/04/29 00:20:41;;;;;;;;;;;4.20;76.20;;;;;;5020336;28;19937;-71
2021/04/29 00:23:06;;;;;;;;;;;4.20;75.70;;;;;;5028451;28;19921;-71
2021/04/29 00:25:32;;;;;;;;;;;4.00;76.30;;;;;;5019523;28;19941;-71
2021/04/29 00:27:57;;;;;;;;;;;3.90;76.50;;;;;;5024209;28;19917;-71
2021/04/29 00:30:23;;;;;;;;;;;3.80;77.50;;;;;;5021395;28;19913;-71
2021/04/29 00:32:48;;;;;;;;;;;3.70;78.40;;;;;;5026546;28;19913;-71
2021/04/29 00:35:14;;;;;;;;;;;3.70;79.00;;;;;;5030095;28;21344;-71
2021/04/29 00:37:40;;;;;;;;;;;3.70;79.70;;;;;;5028672;28;20367;-70
2021/04/29 00:40:06;;;;;;;;;;;3.60;79.30;;;;;;5025881;28;19975;-70
2021/04/29 00:42:35;;;;;;;;;;;3.60;80.20;;;;;;5031272;28;19917;-71
2021/04/29 00:45:00;;;;;;;;;;;3.60;80.60;;;;;;5032271;28;19971;-71
2021/04/29 00:47:26;;;;;;;;;;;3.50;80.00;;;;;;5022949;28;19944;-71
2021/04/29 00:49:52;;;;;;;;;;;3.40;80.80;;;;;;5022305;28;20385;-71
2021/04/29 00:52:17;;;;;;;;;;;3.50;80.40;;;;;;5029133;28;19948;-71
2021/04/29 00:54:43;;;;;;;;;;;3.40;80.40;;;;;;5024087;28;19914;-72
2021/04/29 00:57:08;;;;;;;;;;;3.40;80.10;;;;;;5023369;28;19963;-71
2021/04/29 00:59:34;;;;;;;;;;;3.40;80.70;;;;;;5028881;28;19921;-72
2021/04/29 01:02:02;;;;;;;;;;;3.40;80.50;;;;;;5018265;28;19921;-71
2021/04/29 01:04:36;;;;;;;;;;;3.30;80.80;;;;;;5010174;28;19913;-71
2021/04/29 01:07:07;;;;;;;;;;;3.30;81.20;;;;;;5012563;28;19921;-72
2021/04/29 01:09:35;;;;;;;;;;;3.30;81.80;;;;;;5002637;28;20334;-72
2021/04/29 01:12:03;;;;;;;;;;;3.30;81.70;;;;;;5010983;28;20346;-72
2021/04/29 01:14:30;;;;;;;;;;;3.30;82.20;;;;;;5000624;28;20028;-72
2021/04/29 01:16:56;;;;;;;;;;;3.20;82.50;;;;;;4995938;28;19965;-71
2021/04/29 01:19:26;;;;;;;;;;;3.20;82.70;;;;;;5002262;28;19914;-71
2021/04/29 01:21:52;;;;;;;;;;;3.30;82.80;;;;;;5006638;28;19913;-72
2021/04/29 01:24:22;;;;;;;;;;;3.20;82.70;;;;;;5006573;28;20068;-72
2021/04/29 01:26:51;;;;;;;;;;;3.30;82.70;;;;;;5004977;28;19922;-72
2021/04/29 01:29:20;;;;;;;;;;;3.30;82.80;;;;;;5000092;28;20397;-72
2021/04/29 01:31:47;;;;;;;;;;;3.30;82.80;;;;;;4999688;28;19925;-71
2021/04/29 01:34:14;;;;;;;;;;;3.40;82.70;;;;;;5007951;28;19937;-72
2021/04/29 01:36:40;;;;;;;;;;;3.40;82.80;;;;;;4996294;28;20374;-71
2021/04/29 01:39:07;;;;;;;;;;;3.40;82.80;;;;;;5004531;28;19985;-71
2021/04/29 01:41:33;;;;;;;;;;;3.40;82.60;;;;;;4983269;28;19913;-71
2021/04/29 01:43:58;;;;;;;;;;;3.40;82.90;;;;;;4997471;28;20322;-72
2021/04/29 01:46:24;;;;;;;;;;;3.40;83.00;;;;;;5009540;28;19929;-71
2021/04/29 01:48:51;;;;;;;;;;;3.40;83.40;;;;;;5004270;28;19972;-71
2021/04/29 01:51:16;;;;;;;;;;;3.50;83.50;;;;;;5001829;28;19918;-71
2021/04/29 01:53:42;;;;;;;;;;;3.50;83.10;;;;;;4998740;28;20271;-71
2021/04/29 01:56:08;;;;;;;;;;;3.40;83.20;;;;;;5009116;28;19922;-71
2021/04/29 01:58:33;;;;;;;;;;;3.50;83.30;;;;;;5013982;28;20278;-71
2021/04/29 02:01:00;;;;;;;;;;;3.50;83.20;;;;;;5001980;28;19918;-71
2021/04/29 02:03:26;;;;;;;;;;;3.60;83.30;;;;;;5001082;28;19920;-71
2021/04/29 02:05:52;;;;;;;;;;;3.70;83.00;;;;;;5003214;28;19922;-70
2021/04/29 02:08:17;;;;;;;;;;;3.70;82.80;;;;;;5011951;28;20267;-70
2021/04/29 02:10:43;;;;;;;;;;;3.70;82.80;;;;;;4999124;28;19960;-70
2021/04/29 02:13:10;;;;;;;;;;;3.70;82.80;;;;;;4996957;28;19968;-72
2021/04/29 02:15:38;;;;;;;;;;;3.70;83.10;;;;;;5000406;28;19914;-72
2021/04/29 02:18:14;;;;;;;;;;;3.60;83.00;;;;;;5003279;28;20059;-72
2021/04/29 02:20:41;;;;;;;;;;;3.60;83.30;;;;;;5002327;28;20409;-71
2021/04/29 02:23:12;;;;;;;;;;;3.60;84.00;;;;;;4995775;28;19921;-71
2021/04/29 02:25:38;;;;;;;;;;;3.50;84.50;;;;;;5001290;28;19932;-71
2021/04/29 02:28:04;;;;;;;;;;;3.50;84.70;;;;;;5000653;28;19987;-71
2021/04/29 02:30:30;;;;;;;;;;;3.50;84.70;;;;;;5005778;28;20016;-71
2021/04/29 02:32:56;;;;;;;;;;;3.60;84.50;;;;;;4980259;28;20378;-71
2021/04/29 02:35:21;;;;;;;;;;;3.60;84.60;;;;;;5001595;28;19968;-71
2021/04/29 02:37:49;;;;;;;;;;;3.60;84.60;;;;;;5011442;28;19925;-72
2021/04/29 02:40:15;;;;;;;;;;;3.50;83.80;;;;;;4983697;28;19917;-71
2021/04/29 02:42:41;;;;;;;;;;;3.60;84.80;;;;;;5004167;28;20334;-71
2021/04/29 02:45:12;;;;;;;;;;;3.60;84.70;;;;;;4998020;28;19997;-71
2021/04/29 02:47:39;;;;;;;;;;;3.60;84.80;;;;;;4999339;28;19922;-71
2021/04/29 02:50:05;;;;;;;;;;;3.60;84.60;;;;;;4966869;28;19977;-70
2021/04/29 02:52:31;;;;;;;;;;;3.60;84.60;;;;;;4995352;28;19914;-70
2021/04/29 02:54:57;;;;;;;;;;;3.60;84.90;;;;;;5001230;28;20300;-72
2021/04/29 02:57:23;;;;;;;;;;;3.60;85.10;;;;;;5006944;28;19959;-70
2021/04/29 02:59:48;;;;;;;;;;;3.60;85.60;;;;;;4992091;28;20330;-71
2021/04/29 03:02:15;;;;;;;;;;;3.60;85.70;;;;;;4995802;28;20016;-71
2021/04/29 03:04:41;;;;;;;;;;;3.60;86.30;;;;;;5012806;28;19922;-71
2021/04/29 03:07:06;;;;;;;;;;;3.60;86.20;;;;;;5004183;28;20003;-72
2021/04/29 03:09:32;;;;;;;;;;;3.60;86.10;;;;;;4980610;28;19976;-71
2021/04/29 03:11:57;;;;;;;;;;;3.60;86.70;;;;;;4991206;28;20343;-71
2021/04/29 03:14:23;;;;;;;;;;;3.60;86.60;;;;;;5001123;28;19914;-71
2021/04/29 03:16:48;;;;;;;;;;;3.70;86.30;;;;;;4992261;28;19956;-72
2021/04/29 03:19:14;;;;;;;;;;;3.70;86.80;;;;;;4992106;28;19928;-71
2021/04/29 03:21:40;;;;;;;;;;;3.80;87.30;;;;;;4999435;28;20378;-72
2021/04/29 03:24:07;;;;;;;;;;;3.80;86.60;;;;;;4994297;28;20286;-72
2021/04/29 03:26:33;;;;;;;;;;;3.80;86.20;;;;;;4995283;28;19928;-71
2021/04/29 03:28:58;;;;;;;;;;;3.80;85.90;;;;;;4991692;28;20399;-71
2021/04/29 03:31:24;;;;;;;;;;;3.80;85.90;;;;;;5004398;28;19929;-71
2021/04/29 03:33:50;;;;;;;;;;;3.80;85.70;;;;;;5006985;28;19917;-71
2021/04/29 03:36:15;;;;;;;;;;;3.90;86.60;;;;;;5002447;28;19913;-72
2021/04/29 03:38:41;;;;;;;;;;;3.90;87.30;;;;;;5006139;28;19914;-72
2021/04/29 03:41:06;;;;;;;;;;;4.00;87.30;;;;;;4992815;28;19928;-72
2021/04/29 03:43:32;;;;;;;;;;;4.10;86.80;;;;;;4997671;28;19913;-72
2021/04/29 03:45:57;;;;;;;;;;;4.20;86.70;;;;;;5001882;28;20099;-72
2021/04/29 03:48:23;;;;;;;;;;;4.30;86.50;;;;;;5003563;28;19971;-72
2021/04/29 03:50:48;;;;;;;;;;;4.40;86.60;;;;;;5000052;28;19928;-72
2021/04/29 03:53:14;;;;;;;;;;;4.40;86.50;;;;;;5006348;28;19924;-72
2021/04/29 03:55:39;;;;;;;;;;;4.50;86.30;;;;;;4992929;28;19917;-72
2021/04/29 03:58:05;;;;;;;;;;;4.70;86.20;;;;;;4995352;28;19921;-72
2021/04/29 04:00:31;;;;;;;;;;;4.80;85.90;;;;;;4994693;28;19972;-72
2021/04/29 04:02:56;;;;;;;;;;;4.90;85.80;;;;;;4980234;28;19917;-72
2021/04/29 04:05:22;;;;;;;;;;;4.90;85.80;;;;;;4994763;28;19913;-72
2021/04/29 04:07:47;;;;;;;;;;;5.10;85.60;;;;;;5000611;28;19968;-72
2021/04/29 04:10:13;;;;;;;;;;;5.20;85.60;;;;;;4996101;28;20286;-71
2021/04/29 04:12:39;;;;;;;;;;;5.30;85.50;;;;;;5000379;28;19917;-71
2021/04/29 04:15:05;;;;;;;;;;;5.40;85.30;;;;;;5001987;28;20041;-72
2021/04/29 04:17:30;;;;;;;;;;;5.50;85.00;;;;;;4993244;28;20353;-72
2021/04/29 04:19:56;;;;;;;;;;;5.60;84.90;;;;;;5006746;28;20004;-72
2021/04/29 04:22:21;;;;;;;;;;;5.70;84.80;;;;;;4999069;28;19944;-72
2021/04/29 04:24:47;;;;;;;;;;;5.80;84.90;;;;;;4992172;28;19914;-71
2021/04/29 04:27:13;;;;;;;;;;;5.80;85.00;;;;;;4991090;28;19926;-71
2021/04/29 04:29:38;;;;;;;;;;;5.90;85.00;;;;;;4996307;28;19913;-71
2021/04/29 04:32:04;;;;;;;;;;;5.90;84.90;;;;;;4999429;28;20338;-72
2021/04/29 04:34:30;;;;;;;;;;;6.00;84.90;;;;;;5002278;28;20399;-72
2021/04/29 04:36:55;;;;;;;;;;;6.00;84.80;;;;;;5002728;28;19913;-71
2021/04/29 04:39:21;;;;;;;;;;;6.10;84.70;;;;;;5004456;28;19932;-71
2021/04/29 04:41:47;;;;;;;;;;;6.20;84.90;;;;;;5001022;28;20269;-72
2021/04/29 04:44:12;;;;;;;;;;;6.20;84.70;;;;;;4991888;28;20002;-72
2021/04/29 04:46:38;;;;;;;;;;;6.30;84.70;;;;;;4991939;28;19937;-72
2021/04/29 04:49:03;;;;;;;;;;;6.40;84.80;;;;;;4972683;28;20000;-72
2021/04/29 04:51:29;;;;;;;;;;;6.50;84.70;;;;;;4990665;28;19925;-72
2021/04/29 04:53:54;;;;;;;;;;;6.60;84.80;;;;;;4997305;28;19913;-71
2021/04/29 04:56:20;;;;;;;;;;;6.60;84.20;;;;;;4972278;28;19925;-72
2021/04/29 04:58:45;;;;;;;;;;;6.70;84.20;;;;;;5009510;28;19913;-72
2021/04/29 05:01:11;;;;;;;;;;;6.80;84.70;;;;;;4995504;28;19918;-72
2021/04/29 05:03:37;;;;;;;;;;;7.00;84.50;;;;;;4993228;28;19917;-72
2021/04/29 05:06:02;;;;;;;;;;;7.10;84.00;;;;;;5005375;28;20024;-72
2021/04/29 05:08:28;;;;;;;;;;;7.20;83.50;;;;;;5001644;28;19996;-72
2021/04/29 05:10:53;;;;;;;;;;;7.30;83.70;;;;;;5012444;28;20504;-72
2021/04/29 05:13:19;;;;;;;;;;;7.40;83.60;;;;;;5000708;28;19943;-71
2021/04/29 05:15:45;;;;;;;;;;;7.50;83.80;;;;;;5001834;28;19921;-72
2021/04/29 05:18:10;;;;;;;;;;;7.60;83.30;;;;;;5005484;28;19918;-72
2021/04/29 05:20:36;;;;;;;;;;;7.70;82.80;;;;;;4988302;28;19969;-72
2021/04/29 05:23:01;;;;;;;;;;;7.80;83.10;;;;;;4994771;28;19920;-73
2021/04/29 05:25:27;;;;;;;;;;;7.90;82.70;;;;;;4990519;28;19929;-71
2021/04/29 05:27:53;;;;;;;;;;;8.00;82.70;;;;;;5004718;28;19920;-71
2021/04/29 05:30:20;;;;;;;;;;;8.10;83.40;;;;;;5002885;28;19937;-71
2021/04/29 05:32:48;;;;;;;;;;;8.30;82.20;;;;;;5000961;28;19913;-71
2021/04/29 05:35:14;;;;;;;;;;;8.30;82.20;;;;;;5003235;28;19980;-71
2021/04/29 05:37:39;;;;;;;;;;;8.50;82.10;;;;;;5005889;28;19913;-71
2021/04/29 05:40:05;;;;;;;;;;;8.60;82.30;;;;;;4994366;28;19920;-71
2021/04/29 05:42:31;;;;;;;;;;;8.70;81.60;;;;;;4994257;28;19972;-71
2021/04/29 05:44:56;;;;;;;;;;;8.80;81.70;;;;;;5001974;28;19967;-72
2021/04/29 05:47:22;;;;;;;;;;;9.00;81.20;;;;;;5007509;28;19929;-72
2021/04/29 05:49:48;;;;;;;;;;;9.10;81.10;;;;;;4980115;28;19921;-72
2021/04/29 05:52:13;;;;;;;;;;;9.30;80.80;;;;;;4996133;28;19914;-72
2021/04/29 05:54:39;;;;;;;;;;;9.40;80.10;;;;;;4999534;28;19975;-72
2021/04/29 05:57:04;;;;;;;;;;;9.50;79.80;;;;;;4994740;28;20020;-73
2021/04/29 05:59:30;;;;;;;;;;;9.60;80.00;;;;;;4990450;28;19922;-73
2021/04/29 06:01:56;;;;;;;;;;;9.70;79.20;;;;;;4998239;28;19987;-73
2021/04/29 06:04:22;;;;;;;;;;;9.80;79.40;;;;;;4999378;28;19918;-73
2021/04/29 06:06:50;;;;;;;;;;;9.90;79.80;;;;;;4990850;28;19922;-72
2021/04/29 06:09:16;;;;;;;;;;;10.00;78.80;;;;;;5007682;28;19980;-73
2021/04/29 06:11:42;;;;;;;;;;;10.10;78.40;;;;;;5021956;28;20295;-72
2021/04/29 06:14:10;;;;;;;;;;;10.00;78.20;;;;;;5023206;28;19933;-72
2021/04/29 06:16:35;;;;;;;;;;;10.10;78.30;;;;;;5020874;28;20259;-73
2021/04/29 06:19:01;;;;;;;;;;;10.30;77.90;;;;;;5016960;28;19924;-73
2021/04/29 06:21:27;;;;;;;;;;;10.30;77.90;;;;;;5020036;28;19917;-73
2021/04/29 06:23:52;;;;;;;;;;;10.40;77.90;;;;;;5015576;28;20301;-73
2021/04/29 06:26:18;;;;;;;;;;;10.50;76.90;;;;;;5012900;28;20467;-72
2021/04/29 06:28:43;;;;;;;;;;;10.60;76.70;;;;;;5018488;28;20008;-72
2021/04/29 06:31:09;;;;;;;;;;;10.60;77.20;;;;;;5021291;28;19948;-72
2021/04/29 06:33:34;;;;;;;;;;;10.70;76.30;;;;;;5021254;28;20357;-73
2021/04/29 06:36:00;;;;;;;;;;;10.80;76.40;;;;;;5023951;28;19917;-72
2021/04/29 06:38:25;;;;;;;;;;;10.80;76.20;;;;;;5017727;28;20000;-72
2021/04/29 06:40:51;;;;;;;;;;;10.90;76.10;;;;;;5014499;28;20680;-72
2021/04/29 06:43:17;;;;;;;;;;;10.90;75.70;;;;;;5015824;28;19929;-73
2021/04/29 06:45:42;;;;;;;;;;;11.00;75.80;;;;;;4999191;28;19914;-73
2021/04/29 06:48:10;;;;;;;;;;;11.00;76.00;;;;;;5014553;28;20004;-73
2021/04/29 06:50:42;;;;;;;;;;;11.10;75.80;;;;;;5001442;28;20031;-74
2021/04/29 06:53:12;;;;;;;;;;;11.20;75.70;;;;;;4998741;28;19917;-75
2021/04/29 06:55:37;;;;;;;;;;;11.30;75.50;;;;;;5023141;28;19996;-73
2021/04/29 06:58:03;;;;;;;;;;;11.40;74.50;;;;;;5023261;28;20011;-73
2021/04/29 07:00:29;;;;;;;;;;;11.50;74.30;;;;;;5022900;28;20281;-72
2021/04/29 07:02:56;;;;;;;;;;;11.50;74.80;;;;;;5018045;28;20007;-72
2021/04/29 07:05:22;;;;;;;;;;;11.50;74.40;;;;;;5033784;28;19945;-73
2021/04/29 07:07:56;;;;;;;;;;;11.60;74.60;;;;;;5000732;28;19922;-73
2021/04/29 07:10:23;;;;;;;;;;;11.70;74.20;;;;;;4989235;28;19914;-72
2021/04/29 07:12:49;;;;;;;;;;;11.70;73.90;;;;;;4995182;28;19921;-73
2021/04/29 07:15:15;;;;;;;;;;;11.80;74.70;;;;;;5001801;28;19917;-73
2021/04/29 07:17:41;;;;;;;;;;;11.90;74.10;;;;;;4997284;28;19918;-73
2021/04/29 07:20:08;;;;;;;;;;;12.00;73.60;;;;;;4999706;28;19944;-73
2021/04/29 07:22:33;;;;;;;;;;;12.10;74.00;;;;;;5001726;28;19921;-73
2021/04/29 07:24:59;;;;;;;;;;;12.20;73.80;;;;;;5004304;28;20501;-72
2021/04/29 07:27:24;;;;;;;;;;;12.20;72.80;;;;;;4982730;28;20035;-73
2021/04/29 07:29:50;;;;;;;;;;;12.20;72.10;;;;;;5000223;28;19917;-73
2021/04/29 07:32:17;;;;;;;;;;;12.30;73.20;;;;;;4997993;28;19913;-72
2021/04/29 07:34:42;;;;;;;;;;;12.40;73.00;;;;;;4985241;28;19967;-73
2021/04/29 07:37:08;;;;;;;;;;;12.60;72.20;;;;;;5004563;28;20374;-73
2021/04/29 07:39:34;;;;;;;;;;;12.70;71.70;;;;;;4983325;28;19926;-70
2021/04/29 07:42:00;;;;;;;;;;;12.80;71.40;;;;;;4990557;28;20056;-69
2021/04/29 07:44:26;;;;;;;;;;;12.90;73.00;;;;;;4984384;28;19992;-72
2021/04/29 07:46:52;;;;;;;;;;;13.00;71.60;;;;;;5010396;28;19925;-73
2021/04/29 07:49:17;;;;;;;;;;;13.30;70.10;;;;;;5007091;28;19921;-73
2021/04/29 07:51:44;;;;;;;;;;;13.30;70.50;;;;;;4987538;28;19965;-71
2021/04/29 07:54:13;;;;;;;;;;;13.50;70.20;;;;;;4983520;28;19995;-70
2021/04/29 07:56:39;;;;;;;;;;;13.60;69.60;;;;;;4988082;28;20496;-72
2021/04/29 07:59:05;;;;;;;;;;;13.80;70.20;;;;;;4974403;28;20374;-71
2021/04/29 08:01:31;;;;;;;;;;;14.00;68.50;;;;;;4984359;28;20009;-71
2021/04/29 08:04:00;;;;;;;;;;;14.10;67.70;;;;;;4980124;28;20009;-70
2021/04/29 08:06:26;;;;;;;;;;;14.10;68.10;;;;;;4988716;28;19921;-72
2021/04/29 08:08:52;;;;;;;;;;;14.20;67.20;;;;;;4997750;28;20010;-72
2021/04/29 08:11:18;;;;;;;;;;;14.30;67.20;;;;;;5003784;28;19914;-70
2021/04/29 08:13:44;;;;;;;;;;;14.40;67.30;;;;;;4978390;28;19918;-70
2021/04/29 08:16:11;;;;;;;;;;;14.50;67.80;;;;;;4978053;28;20387;-70
2021/04/29 08:18:44;;;;;;;;;;;14.70;67.10;;;;;;4982669;28;19959;-70
2021/04/29 08:21:11;;;;;;;;;;;14.80;66.50;;;;;;4981061;28;19913;-70
2021/04/29 08:23:37;;;;;;;;;;;15.00;66.40;;;;;;4982023;28;19968;-68
2021/04/29 08:26:03;;;;;;;;;;;15.20;66.20;;;;;;4971385;28;19918;-70
2021/04/29 08:28:28;;;;;;;;;;;15.20;66.90;;;;;;4978537;28;19918;-72
2021/04/29 08:30:55;;;;;;;;;;;15.40;66.10;;;;;;4972117;28;20455;-69
2021/04/29 08:33:21;;;;;;;;;;;15.50;64.90;;;;;;4978475;28;19918;-69
2021/04/29 08:35:50;;;;;;;;;;;15.60;64.40;;;;;;4975576;28;19917;-70
2021/04/29 08:38:15;;;;;;;;;;;15.70;62.50;;;;;;4978625;28;20299;-72
2021/04/29 08:40:41;;;;;;;;;;;15.80;62.80;;;;;;5000869;28;19929;-70
2021/04/29 08:43:07;;;;;;;;;;;15.90;62.20;;;;;;4984535;28;20001;-71
2021/04/29 08:45:36;;;;;;;;;;;16.00;62.10;;;;;;4995048;28;19980;-72
2021/04/29 08:48:02;;;;;;;;;;;16.10;61.80;;;;;;4997961;28;20122;-66
2021/04/29 08:50:28;;;;;;;;;;;16.20;61.60;;;;;;5001985;28;19971;-69
2021/04/29 08:52:55;;;;;;;;;;;16.30;62.70;;;;;;4980535;28;19922;-68
2021/04/29 08:55:23;;;;;;;;;;;16.20;61.30;;;;;;4976207;28;19914;-69
2021/04/29 08:57:49;;;;;;;;;;;16.20;62.40;;;;;;5000198;28;19964;-69
2021/04/29 09:00:15;;;;;;;;;;;16.40;62.60;;;;;;4995576;28;19957;-68
2021/04/29 09:02:41;;;;;;;;;;;16.50;62.90;;;;;;4985037;28;19914;-72
2021/04/29 09:05:10;;;;;;;;;;;16.60;60.50;;;;;;4989362;28;19921;-71
2021/04/29 09:07:37;;;;;;;;;;;16.60;61.00;;;;;;5000569;28;20365;-70
2021/04/29 09:10:03;;;;;;;;;;;16.70;60.50;;;;;;5000290;28;19913;-71
2021/04/29 09:12:32;;;;;;;;;;;16.70;61.10;;;;;;5015762;28;19967;-67
2021/04/29 09:14:58;;;;;;;;;;;16.90;61.10;;;;;;5002553;28;19932;-68
2021/04/29 09:17:24;;;;;;;;;;;17.00;60.50;;;;;;5001489;28;19917;-68
2021/04/29 09:19:50;;;;;;;;;;;17.10;60.00;;;;;;5003932;28;19917;-69
2021/04/29 09:22:18;;;;;;;;;;;17.10;58.90;;;;;;5004156;28;19996;-68
2021/04/29 09:24:44;;;;;;;;;;;17.10;58.60;;;;;;5004785;28;20468;-68
2021/04/29 09:27:09;;;;;;;;;;;17.20;58.60;;;;;;5004161;28;19978;-71
2021/04/29 09:29:35;;;;;;;;;;;17.20;57.90;;;;;;5002393;28;19971;-71
2021/04/29 09:32:01;;;;;;;;;;;17.40;59.20;;;;;;5020062;28;19917;-67
2021/04/29 09:34:36;;;;;;;;;;;17.50;56.70;;;;;;4993730;28;20370;-72
2021/04/29 09:37:02;;;;;;;;;;;17.50;57.40;;;;;;5011003;28;19913;-71
2021/04/29 09:39:33;;;;;;;;;;;17.60;57.40;;;;;;5030116;28;20405;-71
2021/04/29 09:41:58;;;;;;;;;;;17.70;57.20;;;;;;5006575;28;20000;-72
2021/04/29 09:44:25;;;;;;;;;;;17.90;55.70;;;;;;5026260;28;20378;-72
2021/04/29 09:46:51;;;;;;;;;;;18.10;55.70;;;;;;4994882;28;20336;-71
2021/04/29 09:49:37;;;;;;;;;;;18.20;56.90;;;;;;5025412;28;19913;-71
2021/04/29 09:55:10;;;;;;;;;;;18.50;54.10;;;;;;5016360;28;19924;-68
2021/04/29 09:57:36;;;;;;;;;;;18.60;54.80;;;;;;5004237;28;19971;-70
2021/04/29 10:00:02;;;;;;;;;;;18.70;54.60;;;;;;5014720;28;19913;-68
2021/04/29 10:02:28;;;;;;;;;;;18.70;53.50;;;;;;5023582;28;19913;-72
2021/04/29 10:04:54;;;;;;;;;;;18.60;54.30;;;;;;5011785;28;20421;-72
2021/04/29 10:07:21;;;;;;;;;;;18.70;55.50;;;;;;5016888;28;19975;-72
2021/04/29 10:09:47;;;;;;;;;;;18.90;54.50;;;;;;5000768;28;20000;-72
2021/04/29 10:12:17;;;;;;;;;;;19.10;54.90;;;;;;4992939;28;20409;-73
2021/04/29 10:14:44;;;;;;;;;;;19.30;55.00;;;;;;4997851;28;19913;-69
2021/04/29 10:17:10;;;;;;;;;;;19.40;54.90;;;;;;5001308;28;19922;-72
2021/04/29 10:19:46;;;;;;;;;;;19.50;54.30;;;;;;4979635;28;19921;-73
2021/04/29 10:22:12;;;;;;;;;;;19.60;52.60;;;;;;4997608;28;19914;-72
2021/04/29 10:24:42;;;;;;;;;;;19.70;54.00;;;;;;4998330;28;20414;-72
2021/04/29 10:27:09;;;;;;;;;;;19.90;52.40;;;;;;4992580;28;19921;-72
2021/04/29 10:29:35;;;;;;;;;;;19.90;52.70;;;;;;4994706;28;19921;-72
2021/04/29 10:32:01;;;;;;;;;;;19.90;51.40;;;;;;5008372;28;19932;-73
2021/04/29 10:34:56;;;;;;;;;;;20.00;50.30;;;;;;4989092;28;19968;-73
2021/04/29 10:37:27;;;;;;;;;;;20.10;49.50;;;;;;4980239;28;19918;-73
2021/04/29 10:39:57;;;;;;;;;;;20.30;50.00;;;;;;4992507;28;19914;-72
2021/04/29 10:42:24;;;;;;;;;;;20.20;47.70;;;;;;4999632;28;20287;-73
2021/04/29 10:44:53;;;;;;;;;;;20.20;48.00;;;;;;5005868;28;19917;-69
2021/04/29 10:47:23;;;;;;;;;;;20.20;46.40;;;;;;4986297;28;19926;-72
2021/04/29 10:49:49;;;;;;;;;;;20.30;46.60;;;;;;4996234;28;20453;-73
2021/04/29 10:52:15;;;;;;;;;;;20.30;48.60;;;;;;4999358;28;20386;-73
2021/04/29 10:54:52;;;;;;;;;;;20.30;48.10;;;;;;5002798;28;19949;-73
2021/04/29 10:57:18;;;;;;;;;;;20.30;47.50;;;;;;4993235;28;19930;-72
2021/04/29 10:59:45;;;;;;;;;;;20.30;48.10;;;;;;5002427;28;20414;-72
2021/04/29 11:02:24;;;;;;;;;;;20.30;48.80;;;;;;4975587;28;19962;-73
2021/04/29 11:04:51;;;;;;;;;;;20.40;48.90;;;;;;4992299;28;19917;-73
2021/04/29 11:07:18;;;;;;;;;;;20.30;49.30;;;;;;4995266;28;19948;-72
2021/04/29 11:09:55;;;;;;;;;;;20.40;48.50;;;;;;5000972;28;19922;-72
2021/04/29 11:12:21;;;;;;;;;;;20.40;47.90;;;;;;5003286;28;20362;-72
2021/04/29 11:14:46;;;;;;;;;;;20.40;47.60;;;;;;4999134;28;19913;-72
2021/04/29 11:17:22;;;;;;;;;;;20.30;48.10;;;;;;4992143;28;20375;-72
2021/04/29 11:19:48;;;;;;;;;;;20.30;47.80;;;;;;4997692;28;20367;-72
2021/04/29 11:22:20;;;;;;;;;;;20.30;49.20;;;;;;4976934;28;19926;-72
2021/04/29 11:24:47;;;;;;;;;;;20.40;49.60;;;;;;4984824;28;19913;-72
2021/04/29 11:27:26;;;;;;;;;;;20.40;49.40;;;;;;4998202;28;20347;-72
2021/04/29 11:29:55;;;;;;;;;;;20.50;49.80;;;;;;4997697;28;19948;-72
2021/04/29 11:32:21;;;;;;;;;;;20.60;50.80;;;;;;4971802;28;19953;-72
2021/04/29 11:34:48;;;;;;;;;;;20.60;51.90;;;;;;5001695;28;19992;-72
2021/04/29 11:37:15;;;;;;;;;;;20.70;52.40;;;;;;5006109;28;19917;-72
2021/04/29 11:39:41;;;;;;;;;;;20.70;52.80;;;;;;4995789;28;20020;-72
2021/04/29 11:42:09;;;;;;;;;;;20.80;52.30;;;;;;5005883;28;20027;-72
2021/04/29 11:44:35;;;;;;;;;;;20.90;52.10;;;;;;4994720;28;19921;-72
2021/04/29 11:47:14;;;;;;;;;;;21.00;53.00;;;;;;4996717;28;20414;-70
2021/04/29 11:49:41;;;;;;;;;;;20.90;52.20;;;;;;4974269;28;19918;-72
2021/04/29 11:52:07;;;;;;;;;;;20.90;52.90;;;;;;4982519;28;20397;-69
2021/04/29 11:54:32;;;;;;;;;;;20.90;52.90;;;;;;4994579;28;19976;-72
2021/04/29 11:57:01;;;;;;;;;;;20.80;53.80;;;;;;4996350;28;20386;-72
2021/04/29 11:59:31;;;;;;;;;;;20.70;54.00;;;;;;4997719;28;19918;-71
2021/04/29 12:01:57;;;;;;;;;;;20.70;54.40;;;;;;5004874;28;19918;-68
2021/04/29 12:04:24;;;;;;;;;;;20.70;53.70;;;;;;5001168;28;19914;-72
2021/04/29 12:06:49;;;;;;;;;;;20.80;52.50;;;;;;5001636;28;19948;-72
2021/04/29 12:09:15;;;;;;;;;;;20.70;52.60;;;;;;4996528;28;19925;-70
2021/04/29 12:11:41;;;;;;;;;;;20.80;53.70;;;;;;4996847;28;20612;-72
2021/04/29 12:14:06;;;;;;;;;;;20.80;52.10;;;;;;4998155;28;19917;-72
2021/04/29 12:16:33;;;;;;;;;;;20.70;50.80;;;;;;5000130;28;19910;-71
2021/04/29 12:18:59;;;;;;;;;;;20.70;51.80;;;;;;4993630;28;20394;-69
2021/04/29 12:21:25;;;;;;;;;;;20.90;52.80;;;;;;4995045;28;19953;-68
2021/04/29 12:23:55;;;;;;;;;;;21.00;52.80;;;;;;4993406;28;20290;-72
2021/04/29 12:26:28;;;;;;;;;;;21.20;51.30;;;;;;4989562;28;19926;-69
2021/04/29 12:28:57;;;;;;;;;;;21.30;47.10;;;;;;4973281;28;19926;-72
2021/04/29 12:31:23;;;;;;;;;;;21.30;45.80;;;;;;4973988;28;19937;-68
2021/04/29 12:34:09;;;;;;;;;;;21.50;45.00;;;;;;4995716;28;20367;-71
2021/04/29 12:36:35;;;;;;;;;;;21.60;44.10;;;;;;4963733;28;20410;-70
2021/04/29 12:39:13;;;;;;;;;;;21.60;44.40;;;;;;4993476;28;19918;-70
2021/04/29 12:41:39;;;;;;;;;;;21.60;45.20;;;;;;4986948;28;19928;-71
2021/04/29 12:44:05;;;;;;;;;;;21.70;45.00;;;;;;4974706;28;19918;-69
2021/04/29 12:46:30;;;;;;;;;;;21.80;44.40;;;;;;4999758;28;19925;-72
2021/04/29 12:48:56;;;;;;;;;;;21.90;43.30;;;;;;4997334;28;20600;-71
2021/04/29 12:51:21;;;;;;;;;;;21.80;42.70;;;;;;4976258;28;20288;-71
2021/04/29 12:53:54;;;;;;;;;;;21.80;42.70;;;;;;4992722;28;19945;-69
2021/04/29 12:56:30;;;;;;;;;;;21.80;42.70;;;;;;4988646;28;19945;-72
2021/04/29 12:58:56;;;;;;;;;;;21.80;43.50;;;;;;4992300;28;19921;-72
2021/04/29 13:01:22;;;;;;;;;;;21.80;42.30;;;;;;5000489;28;19914;-72
2021/04/29 13:03:48;;;;;;;;;;;21.90;44.20;;;;;;4994193;28;19917;-71
2021/04/29 13:06:14;;;;;;;;;;;21.80;45.00;;;;;;4995531;28;19925;-72
2021/04/29 13:08:50;;;;;;;;;;;21.70;44.50;;;;;;5003263;28;19925;-71
2021/04/29 13:11:27;;;;;;;;;;;21.60;46.30;;;;;;5002086;28;19913;-70
2021/04/29 13:14:10;;;;;;;;;;;21.70;46.20;;;;;;4997494;28;19995;-72
2021/04/29 13:16:37;;;;;;;;;;;21.70;47.40;;;;;;5003791;28;19922;-71
2021/04/29 13:19:03;;;;;;;;;;;21.70;47.60;;;;;;4990056;28;20076;-71
2021/04/29 13:21:30;;;;;;;;;;;21.60;46.60;;;;;;4996461;28;19940;-70
2021/04/29 13:23:56;;;;;;;;;;;21.60;45.60;;;;;;4991401;28;20047;-70
2021/04/29 13:26:22;;;;;;;;;;;21.60;44.40;;;;;;5000296;28;20056;-70
2021/04/29 13:28:48;;;;;;;;;;;21.60;43.80;;;;;;5003593;28;19921;-72
2021/04/29 13:31:13;;;;;;;;;;;21.50;43.30;;;;;;5001441;28;19913;-69
2021/04/29 13:33:39;;;;;;;;;;;21.40;43.70;;;;;;5001702;28;20016;-70
2021/04/29 13:36:05;;;;;;;;;;;21.30;45.60;;;;;;5001555;28;19945;-73
2021/04/29 13:38:30;;;;;;;;;;;21.30;46.40;;;;;;5002154;28;20240;-73
2021/04/29 13:40:56;;;;;;;;;;;21.30;47.70;;;;;;4998628;28;19913;-73
2021/04/29 13:43:22;;;;;;;;;;;21.30;48.70;;;;;;4983212;28;19918;-72
2021/04/29 13:45:47;;;;;;;;;;;21.30;48.00;;;;;;4996569;28;20426;-72
2021/04/29 13:48:13;;;;;;;;;;;21.30;46.40;;;;;;4997111;28;19920;-73
2021/04/29 13:50:39;;;;;;;;;;;21.30;46.90;;;;;;4977911;28;19922;-73
2021/04/29 13:53:05;;;;;;;;;;;21.30;47.60;;;;;;4974122;28;19918;-72
2021/04/29 13:55:31;;;;;;;;;;;21.30;46.90;;;;;;5006199;28;19917;-71
2021/04/29 13:57:56;;;;;;;;;;;21.30;47.40;;;;;;5000524;28;20367;-72
2021/04/29 14:00:22;;;;;;;;;;;21.30;47.30;;;;;;4999810;28;20331;-69
2021/04/29 14:02:47;;;;;;;;;;;21.10;47.10;;;;;;4995501;28;19936;-71
2021/04/29 14:05:14;;;;;;;;;;;21.10;48.10;;;;;;4999210;28;19977;-70
2021/04/29 14:07:39;;;;;;;;;;;21.10;48.10;;;;;;5002289;28;19937;-72
2021/04/29 14:10:05;;;;;;;;;;;21.10;48.90;;;;;;4999879;28;19921;-72
2021/04/29 14:12:33;;;;;;;;;;;21.10;48.50;;;;;;5002144;28;20417;-73
2021/04/29 14:14:59;;;;;;;;;;;21.10;47.60;;;;;;5000788;28;19921;-73
2021/04/29 14:17:24;;;;;;;;;;;21.20;46.40;;;;;;4961582;28;19984;-73
2021/04/29 14:19:50;;;;;;;;;;;21.10;46.10;;;;;;4999946;28;19952;-73
2021/04/29 14:22:15;;;;;;;;;;;21.00;47.20;;;;;;5001915;28;19920;-73
2021/04/29 14:24:41;;;;;;;;;;;20.90;47.40;;;;;;4998896;28;19921;-73